Time;durP1;ratioP1;P1;durP2;ratioP2;P2;SDS_P1;SDS_P2;PMS_P1;PMS_P2;Temp;Humidity;BMP_temperature;BMP_pressure;BME280_temperature;BME280_humidity;BME280_pressure;Samples;Min_cycle;Max_cycle;Signal;HPM_P1;HPM_P2
2021/03/15 00:01:45;;;;;;;13.13;4.50;;;6.80;99.90;;;;;;5047288;28;20739;-76
2021/03/15 00:04:30;;;;;;;17.50;5.13;;;6.80;99.90;;;;;;5047353;28;20256;-76
2021/03/15 00:07:15;;;;;;;16.90;4.90;;;6.80;99.90;;;;;;5047949;28;20210;-76
2021/03/15 00:10:00;;;;;;;12.37;5.03;;;6.80;99.90;;;;;;5046172;28;20283;-76
2021/03/15 00:12:45;;;;;;;11.40;5.13;;;6.80;99.90;;;;;;5045075;28;20242;-76
2021/03/15 00:15:31;;;;;;;16.13;5.43;;;6.80;99.90;;;;;;5046369;28;20249;-77
2021/03/15 00:18:16;;;;;;;11.67;4.63;;;6.80;99.90;;;;;;5052448;28;20206;-77
2021/03/15 00:21:01;;;;;;;10.20;5.20;;;6.70;99.90;;;;;;5051564;28;20678;-77
2021/03/15 00:23:46;;;;;;;12.03;4.47;;;6.70;99.90;;;;;;5044780;28;20257;-77
2021/03/15 00:26:31;;;;;;;13.73;5.30;;;6.80;99.90;;;;;;5045582;28;20215;-77
2021/03/15 00:29:16;;;;;;;9.40;4.90;;;6.70;99.90;;;;;;5049889;28;20207;-77
2021/03/15 00:32:01;;;;;;;7.70;4.90;;;6.70;99.90;;;;;;5042186;28;20238;-77
2021/03/15 00:34:46;;;;;;;9.37;5.13;;;6.80;99.90;;;;;;5045237;28;20206;-77
2021/03/15 00:37:32;;;;;;;9.83;5.20;;;6.70;99.90;;;;;;5052029;28;20712;-77
2021/03/15 00:40:18;;;;;;;10.20;5.07;;;6.70;99.90;;;;;;5052778;28;20210;-77
2021/03/15 00:43:04;;;;;;;11.60;5.27;;;6.70;99.90;;;;;;5050241;28;20629;-77
2021/03/15 00:45:49;;;;;;;8.73;4.60;;;6.70;99.90;;;;;;5050585;28;20560;-77
2021/03/15 00:48:34;;;;;;;12.03;4.57;;;6.70;99.90;;;;;;5049752;28;20202;-77
2021/03/15 00:51:18;;;;;;;9.03;4.97;;;6.70;99.90;;;;;;5046455;28;20214;-77
2021/03/15 00:54:04;;;;;;;10.50;4.93;;;6.70;99.90;;;;;;5051834;28;20752;-77
2021/03/15 00:56:49;;;;;;;9.83;5.10;;;6.70;99.90;;;;;;5049490;28;20218;-77
2021/03/15 00:59:35;;;;;;;7.63;4.40;;;6.70;99.90;;;;;;5048235;28;20238;-77
2021/03/15 01:02:20;;;;;;;6.40;4.40;;;6.70;99.90;;;;;;5053611;28;20218;-77
2021/03/15 01:05:06;;;;;;;6.33;4.10;;;6.70;99.90;;;;;;5045158;28;20756;-76
2021/03/15 01:07:51;;;;;;;8.23;4.37;;;6.70;99.90;;;;;;5047079;28;20218;-76
2021/03/15 01:10:37;;;;;;;8.03;4.00;;;6.70;99.90;;;;;;5050254;28;20207;-76
2021/03/15 01:13:22;;;;;;;6.17;3.80;;;6.70;99.90;;;;;;5043412;28;20235;-75
2021/03/15 01:16:08;;;;;;;6.37;3.93;;;6.70;99.90;;;;;;5040697;28;20227;-77
2021/03/15 01:18:53;;;;;;;8.03;3.90;;;6.70;99.90;;;;;;5052672;28;20206;-76
2021/03/15 01:21:38;;;;;;;7.90;4.60;;;6.60;99.90;;;;;;5041779;28;20211;-76
2021/03/15 01:24:23;;;;;;;8.50;4.30;;;6.60;99.90;;;;;;5045837;28;20199;-76
2021/03/15 01:27:07;;;;;;;9.20;3.80;;;6.60;99.90;;;;;;5052735;28;20202;-78
2021/03/15 01:29:53;;;;;;;7.87;3.60;;;6.60;99.90;;;;;;5044563;28;20566;-77
2021/03/15 01:32:39;;;;;;;8.27;3.90;;;6.60;99.90;;;;;;5037363;28;20836;-77
2021/03/15 01:35:24;;;;;;;8.70;3.63;;;6.60;99.90;;;;;;5050121;28;20690;-77
2021/03/15 01:38:10;;;;;;;6.80;3.73;;;6.60;99.90;;;;;;5046544;28;20615;-76
2021/03/15 01:40:55;;;;;;;4.30;3.57;;;6.60;99.90;;;;;;5046284;28;20727;-76
2021/03/15 01:43:39;;;;;;;8.47;4.33;;;6.60;99.90;;;;;;5040839;28;20250;-77
2021/03/15 01:46:24;;;;;;;7.23;3.97;;;6.60;99.90;;;;;;5043575;28;20462;-77
2021/03/15 01:49:10;;;;;;;8.60;4.27;;;6.50;99.90;;;;;;5043277;28;20207;-77
2021/03/15 01:51:56;;;;;;;7.13;3.97;;;6.60;99.90;;;;;;5049384;28;20210;-77
2021/03/15 01:54:41;;;;;;;7.03;4.73;;;6.50;99.90;;;;;;5047989;28;20207;-76
2021/03/15 01:57:27;;;;;;;7.33;4.60;;;6.50;99.90;;;;;;5038984;28;20209;-77
2021/03/15 02:00:13;;;;;;;7.27;4.27;;;6.60;99.90;;;;;;5039372;28;20265;-76
2021/03/15 02:03:00;;;;;;;8.70;4.77;;;6.50;99.90;;;;;;5047639;28;20227;-77
2021/03/15 02:05:46;;;;;;;9.80;5.10;;;6.50;99.90;;;;;;5045965;28;20649;-76
2021/03/15 02:08:31;;;;;;;8.53;5.17;;;6.60;99.90;;;;;;5051727;28;20728;-77
2021/03/15 02:11:24;;;;;;;8.87;5.47;;;6.50;99.90;;;;;;5050352;28;20202;-77
2021/03/15 02:14:27;;;;;;;7.90;5.23;;;6.60;99.90;;;;;;5048697;28;20703;-77
2021/03/15 02:17:19;;;;;;;14.90;6.10;;;6.50;99.90;;;;;;5052691;28;20568;-77
2021/03/15 02:20:39;;;;;;;13.20;5.63;;;6.50;99.90;;;;;;5054429;28;20206;-77
2021/03/15 02:23:28;;;;;;;11.67;5.73;;;6.50;99.90;;;;;;5017493;28;20265;-76
2021/03/15 02:26:45;;;;;;;12.53;6.23;;;6.60;99.90;;;;;;5052985;28;20199;-77
2021/03/15 02:29:50;;;;;;;14.17;6.40;;;6.60;99.90;;;;;;5052528;28;20246;-77
2021/03/15 02:32:55;;;;;;;10.43;6.53;;;6.50;99.90;;;;;;5051567;28;20644;-77
2021/03/15 02:35:41;;;;;;;11.33;6.53;;;6.50;99.90;;;;;;5047638;28;20207;-76
2021/03/15 02:38:33;;;;;;;13.20;6.63;;;6.60;99.90;;;;;;5048856;28;20586;-77
2021/03/15 02:41:19;;;;;;;11.27;6.60;;;6.50;99.90;;;;;;5052289;28;20294;-77
2021/03/15 02:44:08;;;;;;;10.87;6.20;;;6.60;99.90;;;;;;5042671;28;20234;-77
2021/03/15 02:46:54;;;;;;;12.17;6.87;;;6.60;99.90;;;;;;5053119;28;20253;-77
2021/03/15 02:49:44;;;;;;;14.43;7.23;;;6.60;99.90;;;;;;5052921;28;20202;-77
2021/03/15 02:52:31;;;;;;;10.10;6.53;;;6.60;99.90;;;;;;5044064;28;20262;-77
2021/03/15 02:55:18;;;;;;;9.33;6.70;;;6.60;99.90;;;;;;5053452;28;20239;-76
2021/03/15 02:58:04;;;;;;;10.53;6.53;;;6.60;99.90;;;;;;5050995;28;20265;-77
2021/03/15 03:00:51;;;;;;;9.93;6.70;;;6.60;99.90;;;;;;5053548;28;20226;-77
2021/03/15 03:03:37;;;;;;;10.47;6.53;;;6.60;99.90;;;;;;5050465;28;20273;-76
2021/03/15 03:06:24;;;;;;;10.53;6.77;;;6.60;99.90;;;;;;5045090;28;20740;-77
2021/03/15 03:09:14;;;;;;;10.97;6.17;;;6.60;99.90;;;;;;5050047;28;20571;-77
2021/03/15 03:11:59;;;;;;;13.20;6.87;;;6.60;99.90;;;;;;5047808;28;20617;-77
2021/03/15 03:14:47;;;;;;;10.63;6.37;;;6.60;99.90;;;;;;5051814;28;20202;-77
2021/03/15 03:17:37;;;;;;;14.27;6.27;;;6.60;99.90;;;;;;5038382;28;20287;-77
2021/03/15 03:20:24;;;;;;;14.53;6.83;;;6.60;99.90;;;;;;5052869;28;20626;-77
2021/03/15 03:23:09;;;;;;;9.73;6.30;;;6.60;99.90;;;;;;5052527;28;20242;-76
2021/03/15 03:25:55;;;;;;;11.03;5.97;;;6.60;99.90;;;;;;5050374;28;20310;-77
2021/03/15 03:28:41;;;;;;;10.30;5.87;;;6.60;99.90;;;;;;5049878;28;20297;-77
2021/03/15 03:31:31;;;;;;;12.37;6.47;;;6.60;99.90;;;;;;5045691;28;20287;-76
2021/03/15 03:34:16;;;;;;;12.00;5.87;;;6.60;99.90;;;;;;5049324;28;20203;-77
2021/03/15 03:37:01;;;;;;;11.70;6.07;;;6.60;99.90;;;;;;5050682;28;20230;-77
2021/03/15 03:39:46;;;;;;;9.40;5.67;;;6.60;99.90;;;;;;5049873;28;20269;-76
2021/03/15 03:42:35;;;;;;;13.13;6.50;;;6.60;99.90;;;;;;5037096;28;20253;-76
2021/03/15 03:45:20;;;;;;;13.43;6.30;;;6.60;99.90;;;;;;5047551;28;20234;-77
2021/03/15 03:48:06;;;;;;;11.03;5.90;;;6.60;99.90;;;;;;5052269;28;20214;-77
2021/03/15 03:50:51;;;;;;;9.60;5.37;;;6.60;99.90;;;;;;5033950;28;20207;-77
2021/03/15 03:53:44;;;;;;;11.17;6.13;;;6.60;99.90;;;;;;5040481;28;20273;-77
2021/03/15 03:56:37;;;;;;;12.57;5.87;;;6.60;99.90;;;;;;5039586;28;20219;-75
2021/03/15 03:59:26;;;;;;;10.63;6.13;;;6.60;99.90;;;;;;5035295;28;20257;-77
2021/03/15 04:02:12;;;;;;;11.27;6.70;;;6.60;99.90;;;;;;5049683;28;20230;-77
2021/03/15 04:05:03;;;;;;;15.20;6.67;;;6.60;99.90;;;;;;5051987;28;20215;-77
2021/03/15 04:07:52;;;;;;;11.13;7.10;;;6.60;99.90;;;;;;5044016;28;20202;-76
2021/03/15 04:10:38;;;;;;;12.33;6.40;;;6.60;99.90;;;;;;5051403;28;20735;-76
2021/03/15 04:13:25;;;;;;;15.70;7.70;;;6.60;99.90;;;;;;5051518;28;20285;-75
2021/03/15 04:16:13;;;;;;;12.07;8.13;;;6.60;99.90;;;;;;5049582;28;20210;-75
2021/03/15 04:19:02;;;;;;;15.40;7.83;;;6.60;99.90;;;;;;5051254;28;20721;-76
2021/03/15 04:21:51;;;;;;;15.90;8.33;;;6.60;99.90;;;;;;5040153;28;20792;-75
2021/03/15 04:24:38;;;;;;;16.97;8.57;;;6.60;99.90;;;;;;5049224;28;20505;-76
2021/03/15 04:27:25;;;;;;;16.40;8.17;;;6.60;99.90;;;;;;5050624;28;20246;-76
2021/03/15 04:30:11;;;;;;;21.30;9.73;;;6.60;99.90;;;;;;5038588;28;20199;-76
2021/03/15 04:32:59;;;;;;;18.63;9.47;;;6.60;99.90;;;;;;5038892;28;20235;-75
2021/03/15 04:35:44;;;;;;;19.83;9.27;;;6.60;99.90;;;;;;5042335;28;20214;-76
2021/03/15 04:38:29;;;;;;;25.43;10.90;;;6.60;99.90;;;;;;5050065;28;20219;-76
2021/03/15 04:41:16;;;;;;;20.90;11.03;;;6.60;99.90;;;;;;5043124;28;20215;-74
2021/03/15 04:44:02;;;;;;;21.00;10.67;;;6.60;99.90;;;;;;5040988;28;20233;-76
2021/03/15 04:46:47;;;;;;;14.97;9.23;;;6.70;99.90;;;;;;5043494;28;20239;-76
2021/03/15 04:49:34;;;;;;;22.63;9.20;;;6.60;99.90;;;;;;5047416;28;20617;-76
2021/03/15 04:52:19;;;;;;;17.23;9.37;;;6.60;99.90;;;;;;5044473;28;20227;-76
2021/03/15 04:55:05;;;;;;;21.23;10.27;;;6.60;99.90;;;;;;5048115;28;20211;-75
2021/03/15 04:57:51;;;;;;;19.30;9.07;;;6.60;99.90;;;;;;5037268;28;20673;-75
2021/03/15 05:00:39;;;;;;;19.03;8.83;;;6.60;99.90;;;;;;5049777;28;20210;-76
2021/03/15 05:03:25;;;;;;;17.17;8.67;;;6.60;99.90;;;;;;5047226;28;20322;-75
2021/03/15 05:06:14;;;;;;;15.77;8.77;;;6.60;99.90;;;;;;5030795;28;20207;-75
2021/03/15 05:09:00;;;;;;;22.03;9.23;;;6.60;99.90;;;;;;5043289;28;20352;-75
2021/03/15 05:11:46;;;;;;;17.63;9.00;;;6.60;99.90;;;;;;5047370;28;20210;-75
2021/03/15 05:14:32;;;;;;;18.23;8.60;;;6.60;99.90;;;;;;5035988;28;20222;-76
2021/03/15 05:17:18;;;;;;;20.73;8.10;;;6.60;99.90;;;;;;5042964;28;22421;-75
2021/03/15 05:20:05;;;;;;;18.90;8.17;;;6.60;99.90;;;;;;5053062;28;20708;-78
2021/03/15 05:22:52;;;;;;;21.43;8.60;;;6.60;99.90;;;;;;5047583;28;20230;-78
2021/03/15 05:25:40;;;;;;;16.00;7.53;;;6.60;99.90;;;;;;5053029;28;20233;-76
2021/03/15 05:28:26;;;;;;;15.37;8.13;;;6.50;99.90;;;;;;5042402;28;20207;-78
2021/03/15 05:31:13;;;;;;;20.10;7.90;;;6.50;99.90;;;;;;5045609;28;20274;-78
2021/03/15 05:34:01;;;;;;;12.47;7.10;;;6.50;99.90;;;;;;5040986;28;20227;-77
2021/03/15 05:36:45;;;;;;;15.17;8.43;;;6.40;99.90;;;;;;5050673;28;20711;-78
2021/03/15 05:39:32;;;;;;;15.30;7.13;;;6.40;99.90;;;;;;5054295;28;20246;-78
2021/03/15 05:42:46;;;;;;;17.40;7.47;;;6.30;99.90;;;;;;5056757;28;20322;-78
2021/03/15 05:46:03;;;;;;;15.67;7.67;;;6.30;99.90;;;;;;5055855;28;20213;-78
2021/03/15 05:49:05;;;;;;;15.77;7.83;;;6.20;99.90;;;;;;5053588;28;20206;-77
2021/03/15 05:52:08;;;;;;;17.47;7.27;;;6.20;99.90;;;;;;5041552;28;20253;-77
2021/03/15 05:55:44;;;;;;;14.10;6.70;;;6.10;99.90;;;;;;5053225;28;20732;-78
2021/03/15 05:59:04;;;;;;;21.73;7.67;;;6.10;99.90;;;;;;5044975;28;20286;-77
2021/03/15 06:02:05;;;;;;;15.40;6.70;;;6.10;99.90;;;;;;5054486;28;20214;-77
2021/03/15 06:05:16;;;;;;;19.53;7.13;;;6.00;99.90;;;;;;5054452;28;20214;-77
2021/03/15 06:08:06;;;;;;;15.60;6.73;;;6.00;99.90;;;;;;5046725;28;20268;-78
2021/03/15 06:11:04;;;;;;;13.50;6.40;;;6.00;99.90;;;;;;5058379;28;20257;-78
2021/03/15 06:13:49;;;;;;;12.30;5.90;;;5.90;99.90;;;;;;5046885;28;20639;-77
2021/03/15 06:16:36;;;;;;;16.60;6.33;;;5.90;99.90;;;;;;5048279;28;20266;-77
2021/03/15 06:19:22;;;;;;;18.63;6.70;;;5.90;99.90;;;;;;5051345;28;20448;-78
2021/03/15 06:22:07;;;;;;;16.90;8.27;;;5.80;99.90;;;;;;5050367;28;20262;-78
2021/03/15 06:24:53;;;;;;;15.07;7.00;;;5.80;99.90;;;;;;5050476;28;20230;-78
2021/03/15 06:27:41;;;;;;;18.43;8.30;;;5.70;99.90;;;;;;5046224;28;20578;-78
2021/03/15 06:30:27;;;;;;;19.93;8.40;;;5.70;99.90;;;;;;5051860;28;20584;-77
2021/03/15 06:33:13;;;;;;;20.93;9.33;;;5.70;99.90;;;;;;5047660;28;20242;-77
2021/03/15 06:36:01;;;;;;;21.67;9.77;;;5.70;99.90;;;;;;5046279;28;20234;-77
2021/03/15 06:38:47;;;;;;;22.40;9.67;;;5.70;99.90;;;;;;5049899;28;20576;-77
2021/03/15 06:41:34;;;;;;;25.77;10.23;;;5.70;99.90;;;;;;5047199;28;20238;-79
2021/03/15 06:44:20;;;;;;;29.43;11.40;;;5.70;99.90;;;;;;5049141;28;20257;-77
2021/03/15 06:47:04;;;;;;;26.83;11.30;;;5.80;99.90;;;;;;5052269;28;20595;-77
2021/03/15 06:49:50;;;;;;;33.63;12.07;;;5.80;99.90;;;;;;5051019;28;20556;-78
2021/03/15 06:52:54;;;;;;;28.50;12.27;;;5.90;99.90;;;;;;5044699;28;20230;-78
2021/03/15 06:55:48;;;;;;;32.77;13.23;;;5.90;99.90;;;;;;5041277;28;20206;-78
2021/03/15 06:58:33;;;;;;;30.07;12.47;;;6.00;99.90;;;;;;5045225;28;20218;-76
2021/03/15 07:01:20;;;;;;;32.40;13.10;;;6.00;99.90;;;;;;5043359;28;20233;-79
2021/03/15 07:04:07;;;;;;;32.10;12.30;;;6.10;99.90;;;;;;5043622;28;20222;-77
2021/03/15 07:06:52;;;;;;;37.73;13.07;;;6.20;99.90;;;;;;5048865;28;20230;-79
2021/03/15 07:09:37;;;;;;;32.17;12.83;;;6.20;99.90;;;;;;5054351;28;20217;-79
2021/03/15 07:12:23;;;;;;;31.13;12.50;;;6.30;99.90;;;;;;5042499;28;20288;-77
2021/03/15 07:15:09;;;;;;;27.57;13.57;;;6.40;99.90;;;;;;5051398;28;20230;-77
2021/03/15 07:18:10;;;;;;;39.70;14.13;;;6.40;99.90;;;;;;5051118;28;20752;-77
2021/03/15 07:20:58;;;;;;;28.40;13.03;;;6.50;99.90;;;;;;5051158;28;20289;-78
2021/03/15 07:23:44;;;;;;;25.90;12.73;;;6.60;99.90;;;;;;5054641;28;20262;-79
2021/03/15 07:26:30;;;;;;;27.67;12.53;;;6.60;99.90;;;;;;5053176;28;20291;-78
2021/03/15 07:29:17;;;;;;;23.93;10.77;;;6.70;99.90;;;;;;5050284;28;20242;-76
2021/03/15 07:32:02;;;;;;;28.10;11.70;;;6.90;99.90;;;;;;5051255;28;20236;-78
2021/03/15 07:34:48;;;;;;;29.67;11.70;;;6.90;99.90;;;;;;5055008;28;20702;-76
2021/03/15 07:37:33;;;;;;;21.60;9.93;;;7.00;99.90;;;;;;5053177;28;20254;-78
2021/03/15 07:40:34;;;;;;;26.33;10.43;;;7.10;99.90;;;;;;5042670;28;20665;-80
2021/03/15 07:43:27;;;;;;;25.70;9.67;;;7.10;99.90;;;;;;5045950;28;20369;-78
2021/03/15 07:46:17;;;;;;;27.53;10.03;;;7.20;99.90;;;;;;5048009;28;20202;-78
2021/03/15 07:49:03;;;;;;;23.43;7.90;;;7.30;99.90;;;;;;5050659;28;20562;-78
2021/03/15 07:51:52;;;;;;;30.33;8.97;;;7.30;99.90;;;;;;5046185;28;20580;-76
2021/03/15 07:54:38;;;;;;;24.10;8.60;;;7.40;99.90;;;;;;5043720;28;20206;-76
2021/03/15 07:57:24;;;;;;;21.20;9.17;;;7.50;99.90;;;;;;5045969;28;20223;-77
2021/03/15 08:00:10;;;;;;;24.90;7.67;;;7.50;99.90;;;;;;5047926;28;20230;-78
2021/03/15 08:02:57;;;;;;;17.23;6.13;;;7.50;99.90;;;;;;5044635;28;20258;-77
2021/03/15 08:05:43;;;;;;;30.63;7.50;;;7.60;99.90;;;;;;5053836;28;20219;-78
2021/03/15 08:08:29;;;;;;;13.30;5.30;;;7.60;99.90;;;;;;5053730;28;20222;-77
2021/03/15 08:11:15;;;;;;;18.77;5.90;;;7.60;99.90;;;;;;5050221;28;20830;-77
2021/03/15 08:14:02;;;;;;;16.83;5.30;;;7.60;99.90;;;;;;5052229;28;20781;-78
2021/03/15 08:16:47;;;;;;;19.73;5.47;;;7.60;99.90;;;;;;5053908;28;20252;-78
2021/03/15 08:19:35;;;;;;;21.37;5.33;;;7.70;99.90;;;;;;5045064;28;20223;-78
2021/03/15 08:22:25;;;;;;;21.97;4.80;;;7.70;99.90;;;;;;5052760;28;20233;-78
2021/03/15 08:25:12;;;;;;;14.97;4.37;;;7.70;99.90;;;;;;5054556;28;20207;-76
2021/03/15 08:28:01;;;;;;;12.37;3.73;;;7.80;99.90;;;;;;5047982;28;20234;-77
2021/03/15 08:30:54;;;;;;;15.97;3.90;;;8.00;99.90;;;;;;5049286;28;20231;-78
2021/03/15 08:33:39;;;;;;;12.27;4.17;;;8.00;99.90;;;;;;5042080;28;20231;-78
2021/03/15 08:36:25;;;;;;;19.23;4.43;;;8.10;99.90;;;;;;5054763;28;20218;-79
2021/03/15 08:39:33;;;;;;;18.40;4.53;;;8.20;99.90;;;;;;5049684;28;20513;-79
2021/03/15 08:42:28;;;;;;;13.60;3.63;;;8.20;99.90;;;;;;5048322;28;20226;-78
2021/03/15 08:45:29;;;;;;;13.83;3.73;;;8.30;99.90;;;;;;5058722;28;20302;-78
2021/03/15 08:48:17;;;;;;;15.43;3.40;;;8.30;99.90;;;;;;5058419;28;20284;-76
2021/03/15 08:51:04;;;;;;;15.33;4.03;;;8.30;99.90;;;;;;5049264;28;20258;-79
2021/03/15 08:53:51;;;;;;;17.30;5.10;;;8.30;99.90;;;;;;5041515;28;20285;-78
2021/03/15 08:56:42;;;;;;;13.97;3.57;;;8.30;99.90;;;;;;5041116;28;20260;-79
2021/03/15 08:59:33;;;;;;;21.70;3.27;;;8.30;99.90;;;;;;5044523;28;20230;-78
2021/03/15 09:02:36;;;;;;;16.33;4.07;;;8.30;99.90;;;;;;5048618;28;20238;-79
2021/03/15 09:05:24;;;;;;;14.60;3.40;;;8.30;99.90;;;;;;5055694;28;20215;-79
2021/03/15 09:08:08;;;;;;;11.30;3.13;;;8.20;99.90;;;;;;5056419;28;20207;-78
2021/03/15 09:10:53;;;;;;;12.80;3.23;;;8.30;99.90;;;;;;5056337;28;20564;-78
2021/03/15 09:13:38;;;;;;;14.50;3.70;;;8.30;99.90;;;;;;5056332;28;20489;-79
2021/03/15 09:16:30;;;;;;;17.67;3.97;;;8.30;99.90;;;;;;5047292;28;20230;-79
2021/03/15 09:19:20;;;;;;;22.87;5.07;;;8.30;99.90;;;;;;5053942;28;20215;-79
2021/03/15 09:22:05;;;;;;;19.73;5.83;;;8.30;99.90;;;;;;5047555;28;20273;-78
2021/03/15 09:24:52;;;;;;;11.30;3.40;;;8.40;99.90;;;;;;5052227;28;20230;-78
2021/03/15 09:27:38;;;;;;;14.17;3.30;;;8.50;99.90;;;;;;5044696;28;20463;-79
2021/03/15 09:30:26;;;;;;;9.77;3.00;;;8.60;99.90;;;;;;5056652;28;20334;-79
2021/03/15 09:33:11;;;;;;;10.83;3.30;;;8.80;99.90;;;;;;5055803;28;20236;-79
2021/03/15 09:35:56;;;;;;;9.03;2.47;;;9.00;99.90;;;;;;5055207;28;20218;-79
2021/03/15 09:38:42;;;;;;;11.47;3.03;;;9.10;99.90;;;;;;5050107;28;20654;-77
2021/03/15 09:41:28;;;;;;;9.50;3.20;;;9.30;99.90;;;;;;5048422;28;20253;-79
2021/03/15 09:44:13;;;;;;;10.40;3.20;;;9.50;99.90;;;;;;5046203;28;20206;-78
2021/03/15 09:47:00;;;;;;;10.27;2.90;;;9.80;99.90;;;;;;5055638;28;20203;-78
2021/03/15 09:49:45;;;;;;;7.90;2.80;;;10.10;99.90;;;;;;5056641;28;20549;-78
2021/03/15 09:52:30;;;;;;;12.40;3.30;;;10.40;99.90;;;;;;5051423;28;20297;-77
2021/03/15 09:55:15;;;;;;;9.27;2.80;;;10.80;99.90;;;;;;5056372;28;20239;-78
2021/03/15 09:58:05;;;;;;;11.43;2.70;;;11.00;99.90;;;;;;5050116;28;20211;-78
2021/03/15 10:00:54;;;;;;;6.60;2.70;;;11.20;99.90;;;;;;5056193;28;20222;-77
2021/03/15 10:03:40;;;;;;;8.10;3.17;;;11.30;99.90;;;;;;5057258;28;20223;-80
2021/03/15 10:06:27;;;;;;;5.13;2.40;;;11.40;99.90;;;;;;5055270;28;20215;-78
2021/03/15 10:09:12;;;;;;;9.10;2.50;;;11.60;99.90;;;;;;5052527;28;20210;-78
2021/03/15 10:11:58;;;;;;;10.70;2.50;;;11.70;99.90;;;;;;5054986;28;20215;-79
2021/03/15 10:14:43;;;;;;;4.90;2.07;;;11.90;99.90;;;;;;5052603;28;20749;-78
2021/03/15 10:17:28;;;;;;;8.97;2.10;;;12.20;99.90;;;;;;5051779;28;20318;-78
2021/03/15 10:20:22;;;;;;;9.97;2.57;;;12.20;99.90;;;;;;5053736;28;20242;-78
2021/03/15 10:23:13;;;;;;;6.70;2.27;;;12.30;99.90;;;;;;5055064;28;20285;-78
2021/03/15 10:25:59;;;;;;;6.73;2.27;;;12.30;99.90;;;;;;5056317;28;20234;-79
2021/03/15 10:28:48;;;;;;;6.63;2.73;;;12.20;99.90;;;;;;5054477;28;20206;-79
2021/03/15 10:31:33;;;;;;;12.17;3.07;;;12.20;99.90;;;;;;5057452;28;20259;-78
2021/03/15 10:34:17;;;;;;;6.33;2.77;;;12.00;99.90;;;;;;5060150;28;20265;-78
2021/03/15 10:37:03;;;;;;;10.97;3.00;;;12.00;99.90;;;;;;5059464;28;20265;-81
2021/03/15 10:39:49;;;;;;;7.47;2.93;;;11.90;99.90;;;;;;5057810;28;20238;-77
2021/03/15 10:42:36;;;;;;;5.50;2.30;;;11.90;99.90;;;;;;5057334;28;20311;-78
2021/03/15 10:45:22;;;;;;;15.13;3.50;;;12.00;99.90;;;;;;5061224;28;20203;-80
2021/03/15 10:48:08;;;;;;;11.20;2.70;;;12.20;99.90;;;;;;5058129;28;20332;-78
2021/03/15 10:50:58;;;;;;;7.03;2.17;;;12.50;99.90;;;;;;5053377;28;20242;-76
2021/03/15 10:53:48;;;;;;;12.07;2.43;;;12.90;99.90;;;;;;5058026;28;20326;-79
2021/03/15 10:56:34;;;;;;;8.47;2.73;;;13.20;99.90;;;;;;5057392;28;20199;-76
2021/03/15 10:59:31;;;;;;;7.60;3.10;;;13.30;99.90;;;;;;5050427;28;20218;-79
2021/03/15 11:02:22;;;;;;;6.87;2.77;;;13.50;99.90;;;;;;5057366;28;20234;-78
2021/03/15 11:05:13;;;;;;;5.87;2.63;;;13.60;99.90;;;;;;5058549;28;20210;-79
2021/03/15 11:07:58;;;;;;;8.97;3.00;;;13.70;99.90;;;;;;5054274;28;20191;-78
2021/03/15 11:10:43;;;;;;;6.70;2.53;;;13.80;99.90;;;;;;5050173;28;20620;-78
2021/03/15 11:13:29;;;;;;;12.03;2.83;;;13.90;99.90;;;;;;5055653;28;20602;-77
2021/03/15 11:16:19;;;;;;;6.40;2.70;;;13.90;99.90;;;;;;5051223;28;20206;-78
2021/03/15 11:19:09;;;;;;;11.33;3.00;;;13.90;99.90;;;;;;5048033;28;20231;-78
2021/03/15 11:21:55;;;;;;;7.50;3.13;;;13.80;99.90;;;;;;5054672;28;20205;-77
2021/03/15 11:24:39;;;;;;;7.73;3.20;;;13.90;99.90;;;;;;5048284;28;20538;-78
2021/03/15 11:27:33;;;;;;;8.27;2.70;;;14.00;99.90;;;;;;5052156;28;20214;-77
2021/03/15 11:30:27;;;;;;;8.13;3.03;;;14.20;99.90;;;;;;5052573;28;20226;-79
2021/03/15 11:33:12;;;;;;;6.73;2.97;;;14.60;99.90;;;;;;5045075;28;20230;-78
2021/03/15 11:35:59;;;;;;;8.27;2.83;;;15.00;99.90;;;;;;5052636;28;20211;-78
2021/03/15 11:38:49;;;;;;;6.80;2.70;;;15.50;99.90;;;;;;5048374;28;20231;-79
2021/03/15 11:41:40;;;;;;;10.33;3.10;;;16.10;99.90;;;;;;5058911;28;20289;-79
2021/03/15 11:44:25;;;;;;;10.97;2.77;;;16.70;99.90;;;;;;5057145;28;20231;-78
2021/03/15 11:47:10;;;;;;;5.87;2.07;;;17.20;99.90;;;;;;5054799;28;20557;-79
2021/03/15 11:49:55;;;;;;;5.70;2.43;;;17.50;99.90;;;;;;5057538;28;20213;-78
2021/03/15 11:52:41;;;;;;;6.03;2.90;;;17.70;99.90;;;;;;5053977;28;20286;-76
2021/03/15 11:55:26;;;;;;;7.77;3.00;;;17.70;99.40;;;;;;5052649;28;20218;-78
2021/03/15 11:58:12;;;;;;;5.40;2.20;;;17.70;99.00;;;;;;5056233;28;20660;-79
2021/03/15 12:00:57;;;;;;;9.90;2.77;;;17.70;99.60;;;;;;5046493;28;20266;-77
2021/03/15 12:03:43;;;;;;;7.37;2.57;;;17.70;99.10;;;;;;5054048;28;20238;-78
2021/03/15 12:06:28;;;;;;;6.33;2.10;;;17.80;98.60;;;;;;5053384;28;20217;-79
2021/03/15 12:09:12;;;;;;;7.43;2.17;;;17.90;97.90;;;;;;5052773;28;20213;-76
2021/03/15 12:11:57;;;;;;;8.47;3.20;;;18.10;97.70;;;;;;5053217;28;20209;-77
2021/03/15 12:14:42;;;;;;;7.47;3.00;;;18.20;96.70;;;;;;5048854;28;20267;-77
2021/03/15 12:17:28;;;;;;;11.00;2.73;;;18.30;97.70;;;;;;5039897;28;20251;-78
2021/03/15 12:20:15;;;;;;;6.97;2.70;;;18.30;98.80;;;;;;5046219;28;20292;-77
2021/03/15 12:23:00;;;;;;;8.93;2.57;;;18.30;98.90;;;;;;5050663;28;20284;-78
2021/03/15 12:25:45;;;;;;;7.83;2.47;;;18.10;98.10;;;;;;5051472;28;20203;-78
2021/03/15 12:28:30;;;;;;;9.67;2.93;;;17.90;99.70;;;;;;5039501;28;20272;-76
2021/03/15 12:31:15;;;;;;;8.17;3.60;;;17.60;99.20;;;;;;5050628;28;20208;-78
2021/03/15 12:34:00;;;;;;;8.63;3.50;;;17.30;99.70;;;;;;5041715;28;20302;-77
2021/03/15 12:36:45;;;;;;;9.83;3.30;;;17.10;99.90;;;;;;5053529;28;20281;-78
2021/03/15 12:39:30;;;;;;;11.93;3.90;;;16.90;99.90;;;;;;5045871;28;20226;-77
2021/03/15 12:42:16;;;;;;;9.90;3.57;;;16.80;99.90;;;;;;5052008;28;20275;-78
2021/03/15 12:45:01;;;;;;;8.87;3.07;;;16.70;99.90;;;;;;5052977;28;20257;-78
2021/03/15 12:47:46;;;;;;;8.27;3.00;;;16.50;99.50;;;;;;5052900;28;20303;-78
2021/03/15 12:50:31;;;;;;;8.33;3.20;;;16.50;99.90;;;;;;5050287;28;20216;-77
2021/03/15 12:53:17;;;;;;;6.73;2.70;;;16.40;99.90;;;;;;5047346;28;20278;-77
2021/03/15 12:56:02;;;;;;;8.13;2.70;;;16.60;99.90;;;;;;5050009;28;20590;-78
2021/03/15 12:58:46;;;;;;;8.00;2.63;;;16.90;99.90;;;;;;5051301;28;20267;-77
2021/03/15 13:01:32;;;;;;;10.57;2.70;;;17.10;98.00;;;;;;5048402;28;20237;-79
2021/03/15 13:04:17;;;;;;;6.00;1.80;;;17.30;99.90;;;;;;5052842;28;20738;-77
2021/03/15 13:07:02;;;;;;;9.60;2.70;;;17.20;99.90;;;;;;5048196;28;20315;-78
2021/03/15 13:09:47;;;;;;;6.83;2.50;;;17.10;99.90;;;;;;5048137;28;20221;-77
2021/03/15 13:12:32;;;;;;;7.30;2.87;;;16.90;99.90;;;;;;5050166;28;20256;-78
2021/03/15 13:15:17;;;;;;;3.90;2.07;;;16.60;99.90;;;;;;5043402;28;20259;-77
2021/03/15 13:18:02;;;;;;;5.70;2.20;;;16.30;99.90;;;;;;5042607;28;20246;-78
2021/03/15 13:20:47;;;;;;;3.90;1.77;;;16.00;99.90;;;;;;5045096;28;20242;-77
2021/03/15 13:23:32;;;;;;;5.53;2.00;;;15.70;99.90;;;;;;5044474;28;20606;-78
2021/03/15 13:26:18;;;;;;;5.37;2.43;;;15.40;99.90;;;;;;5052183;28;20232;-79
2021/03/15 13:29:03;;;;;;;7.83;2.70;;;15.10;99.90;;;;;;5041565;28;20270;-78
2021/03/15 13:31:48;;;;;;;9.77;2.80;;;14.90;99.90;;;;;;5053224;28;20213;-78
2021/03/15 13:34:33;;;;;;;6.47;2.60;;;14.60;99.90;;;;;;5051290;28;20246;-78
2021/03/15 13:37:17;;;;;;;9.67;2.80;;;14.40;99.90;;;;;;5049102;28;20242;-77
2021/03/15 13:40:03;;;;;;;10.53;3.13;;;14.20;99.90;;;;;;5047600;28;20243;-78
2021/03/15 13:42:48;;;;;;;9.30;2.67;;;14.00;99.90;;;;;;5047242;28;20859;-79
2021/03/15 13:45:33;;;;;;;13.33;3.00;;;13.80;99.90;;;;;;5045474;28;20215;-77
2021/03/15 13:48:18;;;;;;;9.73;2.73;;;13.70;99.90;;;;;;5050835;28;20204;-77
2021/03/15 13:51:04;;;;;;;7.13;3.10;;;13.40;99.90;;;;;;5044334;28;20772;-78
2021/03/15 13:53:49;;;;;;;6.87;3.00;;;13.20;99.90;;;;;;5050841;28;20253;-78
2021/03/15 13:56:33;;;;;;;9.80;2.90;;;13.00;99.90;;;;;;5051415;28;20207;-78
2021/03/15 13:59:19;;;;;;;10.30;3.43;;;12.80;99.90;;;;;;5050251;28;20298;-78
2021/03/15 14:02:04;;;;;;;11.17;3.27;;;12.60;99.90;;;;;;5048250;28;20253;-79
2021/03/15 14:04:50;;;;;;;10.23;3.37;;;12.40;99.90;;;;;;5044187;28;20203;-76
2021/03/15 14:07:34;;;;;;;10.03;3.23;;;12.40;99.90;;;;;;5051211;28;20346;-79
2021/03/15 14:10:20;;;;;;;9.00;3.33;;;12.30;99.90;;;;;;5048568;28;20369;-76
2021/03/15 14:13:05;;;;;;;5.77;2.70;;;12.30;99.90;;;;;;5053666;28;20789;-78
2021/03/15 14:15:50;;;;;;;6.33;2.60;;;12.40;99.90;;;;;;5058025;28;20210;-79
2021/03/15 14:18:35;;;;;;;12.27;3.30;;;12.60;99.90;;;;;;5060016;28;20290;-77
2021/03/15 14:21:20;;;;;;;7.43;3.00;;;12.70;99.90;;;;;;5059200;28;20308;-77
2021/03/15 14:24:05;;;;;;;9.20;2.83;;;12.80;99.90;;;;;;5053261;28;20234;-77
2021/03/15 14:26:50;;;;;;;10.27;3.10;;;13.00;99.90;;;;;;5056165;28;20686;-78
2021/03/15 14:29:35;;;;;;;11.43;3.50;;;13.20;99.90;;;;;;5055928;28;20321;-78
2021/03/15 14:32:21;;;;;;;13.20;3.50;;;13.50;99.90;;;;;;5055997;28;20221;-78